createdAt,value
2019-02-17T00:00:54.701Z,5.02
2019-02-17T00:03:22.953Z,4.93
2019-02-17T00:05:51.210Z,5.02
2019-02-17T00:08:19.478Z,5.04
2019-02-17T00:10:47.770Z,5.06
2019-02-17T00:13:18.173Z,5.11
2019-02-17T00:15:46.443Z,5.12
2019-02-17T00:18:14.704Z,5.14
2019-02-17T00:20:42.966Z,5.15
2019-02-17T00:23:11.288Z,5.19
2019-02-17T00:25:39.496Z,5.23
2019-02-17T00:28:07.767Z,5.26
2019-02-17T00:30:36.024Z,5.30
2019-02-17T00:33:04.304Z,5.32
2019-02-17T00:35:32.558Z,5.36
2019-02-17T00:38:00.852Z,5.39
2019-02-17T00:40:29.109Z,5.43
2019-02-17T00:42:59.057Z,5.42
2019-02-17T00:45:27.659Z,5.44
2019-02-17T00:47:55.945Z,5.41
2019-02-17T00:50:24.278Z,5.45
2019-02-17T00:52:52.566Z,5.50
2019-02-17T00:55:20.881Z,5.54
2019-02-17T00:57:49.177Z,5.59
2019-02-17T01:00:17.605Z,5.61
2019-02-17T01:02:45.897Z,5.62
2019-02-17T01:05:14.157Z,5.62
2019-02-17T01:07:42.429Z,5.61
2019-02-17T01:10:10.707Z,5.65
2019-02-17T01:12:38.986Z,5.67
2019-02-17T01:15:10.497Z,5.71
2019-02-17T01:17:38.774Z,5.75
2019-02-17T01:20:09.110Z,5.78
2019-02-17T01:22:37.397Z,5.82
2019-02-17T01:25:08.340Z,5.85
2019-02-17T01:27:36.633Z,5.88
2019-02-17T01:30:07.437Z,5.86
2019-02-17T01:32:35.707Z,5.90
2019-02-17T01:35:05.196Z,5.93
2019-02-17T01:37:33.466Z,5.97
2019-02-17T01:40:01.714Z,5.98
2019-02-17T01:42:29.969Z,6.02
2019-02-17T01:44:58.250Z,6.01
2019-02-17T01:47:26.488Z,6.00
2019-02-17T01:49:54.761Z,6.01
2019-02-17T01:52:23.013Z,6.02
2019-02-17T01:54:51.307Z,6.03
2019-02-17T01:57:19.640Z,6.06
2019-02-17T01:59:47.933Z,6.07
2019-02-17T02:02:16.191Z,6.09
2019-02-17T02:04:44.439Z,6.10
2019-02-17T02:07:12.798Z,6.09
2019-02-17T02:09:41.066Z,6.09
2019-02-17T02:12:09.324Z,6.09
2019-02-17T02:14:37.594Z,6.01
2019-02-17T02:17:05.859Z,6.01
2019-02-17T02:19:34.139Z,5.97
2019-02-17T02:22:02.476Z,5.92
2019-02-17T02:24:30.759Z,5.85
2019-02-17T02:26:59.034Z,5.80
2019-02-17T02:29:27.298Z,5.73
2019-02-17T02:31:55.598Z,5.69
2019-02-17T02:34:23.878Z,5.62
2019-02-17T02:36:52.134Z,5.58
2019-02-17T02:39:20.421Z,5.49
2019-02-17T02:41:48.682Z,5.40
2019-02-17T02:44:16.977Z,5.38
2019-02-17T02:46:45.246Z,5.31
2019-02-17T02:49:13.518Z,5.27
2019-02-17T02:51:41.764Z,5.22
2019-02-17T02:54:10.045Z,5.15
2019-02-17T02:56:38.338Z,5.15
2019-02-17T02:59:06.636Z,5.08
2019-02-17T03:01:34.928Z,5.07
2019-02-17T03:04:03.203Z,5.06
2019-02-17T03:06:33.113Z,5.01
2019-02-17T03:09:01.391Z,4.93
2019-02-17T03:11:29.642Z,4.58
2019-02-17T03:13:57.939Z,4.84
2019-02-17T03:16:26.250Z,4.77
2019-02-17T03:18:54.529Z,4.77
2019-02-17T03:21:22.791Z,4.72
2019-02-17T03:23:51.069Z,4.65
2019-02-17T03:26:19.319Z,4.63
2019-02-17T03:28:47.595Z,4.59
2019-02-17T03:31:15.872Z,4.52
2019-02-17T03:33:44.156Z,4.46
2019-02-17T03:36:12.419Z,4.46
2019-02-17T03:38:40.706Z,4.45
2019-02-17T03:41:09.018Z,4.43
2019-02-17T03:43:38.894Z,4.40
2019-02-17T03:46:07.144Z,4.42
2019-02-17T03:48:35.413Z,4.36
2019-02-17T03:51:03.718Z,4.34
2019-02-17T03:53:32.019Z,4.32
2019-02-17T03:56:00.283Z,4.26
2019-02-17T03:58:28.538Z,4.19
2019-02-17T04:00:56.823Z,4.15
2019-02-17T04:03:25.082Z,4.16
2019-02-17T04:05:54.999Z,4.16
2019-02-17T04:08:23.247Z,4.12
2019-02-17T04:10:51.513Z,4.08
2019-02-17T04:13:19.794Z,4.13
2019-02-17T04:15:48.049Z,4.09
2019-02-17T04:18:16.303Z,4.13
2019-02-17T04:20:44.593Z,4.06
2019-02-17T04:23:12.995Z,4.04
2019-02-17T04:25:41.219Z,4.08
2019-02-17T04:29:13.291Z,4.08
2019-02-17T04:31:41.539Z,4.07
2019-02-17T04:34:09.800Z,4.05
2019-02-17T04:36:38.128Z,4.00
2019-02-17T04:39:06.484Z,4.05
2019-02-17T04:41:34.749Z,4.00
2019-02-17T04:44:03.009Z,3.40
2019-02-17T04:46:31.267Z,4.12
2019-02-17T04:48:59.541Z,4.12
2019-02-17T04:51:27.815Z,4.18
2019-02-17T04:53:56.066Z,4.21
2019-02-17T04:56:24.353Z,4.24
2019-02-17T04:58:52.635Z,4.22
2019-02-17T05:01:20.904Z,4.26
2019-02-17T05:03:49.184Z,4.29
2019-02-17T05:06:17.473Z,4.31
2019-02-17T05:08:45.800Z,4.35
2019-02-17T05:11:14.085Z,4.37
2019-02-17T05:13:42.360Z,4.40
2019-02-17T05:16:10.612Z,4.39
2019-02-17T05:18:38.872Z,4.42
2019-02-17T05:21:07.148Z,4.47
2019-02-17T05:23:37.688Z,4.53
2019-02-17T05:26:05.975Z,4.55
2019-02-17T05:28:34.225Z,4.56
2019-02-17T05:31:02.470Z,4.59
2019-02-17T05:33:30.747Z,4.61
2019-02-17T05:35:59.021Z,4.62
2019-02-17T05:38:27.286Z,4.62
2019-02-17T05:40:55.554Z,4.63
2019-02-17T05:43:23.855Z,4.63
2019-02-17T05:45:52.173Z,4.51
2019-02-17T05:48:20.411Z,4.53
2019-02-17T05:50:48.673Z,4.56
2019-02-17T05:53:16.951Z,4.57
2019-02-17T05:55:45.237Z,4.55
2019-02-17T05:58:13.503Z,4.53
2019-02-17T06:00:41.862Z,4.49
2019-02-17T06:03:10.103Z,4.49
2019-02-17T06:05:38.388Z,4.45
2019-02-17T06:08:06.636Z,4.40
2019-02-17T06:10:34.935Z,4.37
2019-02-17T06:13:03.193Z,4.41
2019-02-17T06:15:31.472Z,4.38
2019-02-17T06:17:59.733Z,4.36
2019-02-17T06:20:29.430Z,4.31
2019-02-17T06:22:57.699Z,4.28
2019-02-17T06:25:25.968Z,4.31
2019-02-17T06:27:54.265Z,4.27
2019-02-17T06:30:22.542Z,4.27
2019-02-17T06:32:50.815Z,4.28
2019-02-17T06:35:19.086Z,4.28
2019-02-17T06:37:47.366Z,4.16
2019-02-17T06:40:15.627Z,4.11
2019-02-17T06:42:43.900Z,4.06
2019-02-17T06:45:12.151Z,4.06
2019-02-17T06:47:40.435Z,4.05
2019-02-17T06:50:10.035Z,3.96
2019-02-17T06:52:38.317Z,3.92
2019-02-17T06:55:08.260Z,3.90
2019-02-17T06:57:38.195Z,3.87
2019-02-17T07:00:10.246Z,3.78
2019-02-17T07:02:38.911Z,3.77
2019-02-17T07:05:14.663Z,3.77
2019-02-17T07:07:42.973Z,3.80
2019-02-17T07:10:11.246Z,3.80
2019-02-17T07:12:39.532Z,3.82
2019-02-17T07:15:07.903Z,3.81
2019-02-17T07:17:36.494Z,3.82
2019-02-17T07:20:06.035Z,3.86
2019-02-17T07:22:34.274Z,3.85
2019-02-17T07:25:02.557Z,3.90
2019-02-17T07:27:30.823Z,3.98
2019-02-17T07:29:59.100Z,4.05
2019-02-17T07:32:27.367Z,4.11
2019-02-17T07:34:55.677Z,4.21
2019-02-17T07:37:35.565Z,4.30
2019-02-17T07:40:04.879Z,4.39
2019-02-17T07:42:33.179Z,4.50
2019-02-17T07:45:04.379Z,4.63
2019-02-17T07:47:32.632Z,4.76
2019-02-17T07:50:00.909Z,4.84
2019-02-17T07:52:29.193Z,4.92
2019-02-17T07:54:57.535Z,4.97
2019-02-17T07:57:30.669Z,5.06
2019-02-17T07:59:59.039Z,5.17
2019-02-17T08:02:27.323Z,5.38
2019-02-17T08:04:56.014Z,5.58
2019-02-17T08:07:24.300Z,5.74
2019-02-17T08:09:52.553Z,5.88
2019-02-17T08:12:20.847Z,6.00
2019-02-17T08:14:49.134Z,6.11
2019-02-17T08:17:17.497Z,6.24
2019-02-17T08:19:45.773Z,6.46
2019-02-17T08:22:14.030Z,6.73
2019-02-17T08:24:42.325Z,6.99
2019-02-17T08:27:10.627Z,7.25
2019-02-17T08:29:40.538Z,7.52
2019-02-17T08:32:08.799Z,7.82
2019-02-17T08:34:37.065Z,8.05
2019-02-17T08:37:05.359Z,8.09
2019-02-17T08:39:33.616Z,8.25
2019-02-17T08:42:01.884Z,8.54
2019-02-17T08:44:30.155Z,9.06
2019-02-17T08:46:58.450Z,9.62
2019-02-17T08:49:28.174Z,10.07
2019-02-17T08:51:56.485Z,10.71
2019-02-17T08:54:24.819Z,11.35
2019-02-17T08:56:53.072Z,11.92
2019-02-17T08:59:21.347Z,12.41
2019-02-17T09:01:49.614Z,13.02
2019-02-17T09:04:20.226Z,13.55
2019-02-17T09:06:48.489Z,14.21
2019-02-17T09:09:16.764Z,14.38
2019-02-17T09:11:45.020Z,15.08
2019-02-17T09:14:13.306Z,15.59
2019-02-17T09:16:41.547Z,15.49
2019-02-17T09:19:14.464Z,15.93
2019-02-17T09:21:42.944Z,15.58
2019-02-17T09:24:11.238Z,15.78
2019-02-17T09:26:39.521Z,16.44
2019-02-17T09:29:07.839Z,16.64
2019-02-17T09:31:36.159Z,17.04
2019-02-17T09:34:04.477Z,16.91
2019-02-17T09:36:32.831Z,17.37
2019-02-17T09:39:01.157Z,15.50
2019-02-17T09:41:29.404Z,16.66
2019-02-17T09:43:57.676Z,17.13
2019-02-17T09:46:25.966Z,16.80
2019-02-17T09:48:55.764Z,16.55
2019-02-17T09:51:24.244Z,16.89
2019-02-17T09:53:52.516Z,17.12
2019-02-17T09:56:20.784Z,16.21
2019-02-17T09:58:49.054Z,15.90
2019-02-17T10:01:17.389Z,14.82
2019-02-17T10:03:45.668Z,14.51
2019-02-17T10:06:13.924Z,14.03
2019-02-17T10:08:42.301Z,14.56
2019-02-17T10:11:10.583Z,14.46
2019-02-17T10:13:38.849Z,14.17
2019-02-17T10:16:07.129Z,14.17
2019-02-17T10:18:35.398Z,13.72
2019-02-17T10:21:03.675Z,13.81
2019-02-17T10:23:31.930Z,13.86
2019-02-17T10:26:00.245Z,13.51
2019-02-17T10:28:28.506Z,13.11
2019-02-17T10:30:58.408Z,12.95
2019-02-17T10:33:26.686Z,13.11
2019-02-17T10:35:54.946Z,13.44
2019-02-17T10:38:23.230Z,12.82
2019-02-17T10:40:51.487Z,12.62
2019-02-17T10:43:19.775Z,12.83
2019-02-17T10:45:48.050Z,12.95
2019-02-17T10:48:16.331Z,12.79
2019-02-17T10:50:44.630Z,12.49
2019-02-17T10:53:12.890Z,12.47
2019-02-17T10:55:41.155Z,12.79
2019-02-17T10:58:09.448Z,13.12
2019-02-17T11:00:37.737Z,13.04
2019-02-17T11:03:07.851Z,12.99
2019-02-17T11:05:36.115Z,13.00
2019-02-17T11:08:04.383Z,12.94
2019-02-17T11:10:32.684Z,12.93
2019-02-17T11:13:00.964Z,13.05
2019-02-17T11:15:29.239Z,12.92
2019-02-17T11:17:57.513Z,12.57
2019-02-17T11:20:25.787Z,12.28
2019-02-17T11:22:54.095Z,12.33
2019-02-17T11:25:22.523Z,12.61
2019-02-17T11:27:50.807Z,12.47
2019-02-17T11:30:20.633Z,12.53
2019-02-17T11:32:57.720Z,12.75
2019-02-17T11:35:18.897Z,12.67
2019-02-17T11:37:47.176Z,12.43
2019-02-17T11:40:15.811Z,12.52
2019-02-17T11:42:44.129Z,12.87
2019-02-17T11:45:17.358Z,12.69
2019-02-17T11:47:45.693Z,12.60
2019-02-17T11:50:15.692Z,12.50
2019-02-17T11:52:43.957Z,12.53
2019-02-17T11:55:16.674Z,12.74
2019-02-17T11:57:44.935Z,12.92
2019-02-17T12:00:18.958Z,12.24
2019-02-17T12:02:47.237Z,12.67
2019-02-17T12:05:15.508Z,12.41
2019-02-17T12:07:43.766Z,12.28
2019-02-17T12:10:12.231Z,12.26
2019-02-17T12:12:40.688Z,12.27
2019-02-17T12:15:11.062Z,12.30
2019-02-17T12:17:39.329Z,12.47
2019-02-17T12:20:24.428Z,12.50
2019-02-17T12:23:00.278Z,12.62
2019-02-17T12:25:30.212Z,12.90
2019-02-17T12:28:02.847Z,13.13
2019-02-17T12:30:31.110Z,12.72
2019-02-17T12:32:59.395Z,12.95
2019-02-17T12:35:27.692Z,12.90
2019-02-17T12:37:55.975Z,12.69
2019-02-17T12:40:24.274Z,12.71
2019-02-17T12:42:52.684Z,12.87
2019-02-17T12:45:20.960Z,12.82
2019-02-17T12:47:57.446Z,12.93
2019-02-17T12:50:19.230Z,13.00
2019-02-17T12:52:47.991Z,13.18
2019-02-17T12:55:18.068Z,13.01
2019-02-17T12:57:46.348Z,12.86
2019-02-17T13:00:16.626Z,13.08
2019-02-17T13:02:47.079Z,13.32
2019-02-17T13:05:15.415Z,13.14
2019-02-17T13:07:43.698Z,13.28
2019-02-17T13:10:12.120Z,13.36
2019-02-17T13:12:40.435Z,13.38
2019-02-17T13:15:11.240Z,14.03
2019-02-17T13:17:39.510Z,14.69
2019-02-17T13:20:13.769Z,15.10
2019-02-17T13:22:42.043Z,14.71
2019-02-17T13:25:15.342Z,15.12
2019-02-17T13:27:43.613Z,14.56
2019-02-17T13:30:20.208Z,14.78
2019-02-17T13:32:48.468Z,15.25
2019-02-17T13:35:16.745Z,15.87
2019-02-17T13:37:45.013Z,15.58
2019-02-17T13:40:14.133Z,15.84
2019-02-17T13:42:44.040Z,16.10
2019-02-17T13:45:14.414Z,15.53
2019-02-17T13:47:42.686Z,15.54
2019-02-17T13:50:17.835Z,15.20
2019-02-17T13:52:46.117Z,14.98
2019-02-17T13:55:14.412Z,15.12
2019-02-17T13:57:42.673Z,15.12
2019-02-17T14:00:20.908Z,15.22
2019-02-17T14:02:49.180Z,15.06
2019-02-17T14:05:17.456Z,14.97
2019-02-17T14:07:46.059Z,15.10
2019-02-17T14:10:14.899Z,14.95
2019-02-17T14:12:43.163Z,14.54
2019-02-17T14:15:15.977Z,14.56
2019-02-17T14:17:44.247Z,14.59
2019-02-17T14:20:12.536Z,14.44
2019-02-17T14:22:40.782Z,14.59
2019-02-17T14:25:11.078Z,14.64
2019-02-17T14:27:39.768Z,14.62
2019-02-17T14:30:12.876Z,14.33
2019-02-17T14:32:41.156Z,14.22
2019-02-17T14:35:09.480Z,14.24
2019-02-17T14:37:37.857Z,14.11
2019-02-17T14:40:08.561Z,14.19
2019-02-17T14:42:36.833Z,14.34
2019-02-17T14:45:08.201Z,14.27
2019-02-17T14:47:36.507Z,14.09
2019-02-17T14:50:08.555Z,14.19
2019-02-17T14:52:36.831Z,14.05
2019-02-17T14:55:11.092Z,14.12
2019-02-17T14:57:39.460Z,14.04
2019-02-17T15:00:23.544Z,14.00
2019-02-17T15:02:51.805Z,13.80
2019-02-17T15:05:20.066Z,13.86
2019-02-17T15:07:48.359Z,13.82
2019-02-17T15:10:19.245Z,13.63
2019-02-17T15:12:47.517Z,13.57
2019-02-17T15:15:18.465Z,13.34
2019-02-17T15:17:46.733Z,13.36
2019-02-17T15:20:17.610Z,13.25
2019-02-17T15:22:45.896Z,13.26
2019-02-17T15:25:14.165Z,13.24
2019-02-17T15:27:42.487Z,13.02
2019-02-17T15:30:13.087Z,12.90
2019-02-17T15:32:42.990Z,12.74
2019-02-17T15:35:11.266Z,12.55
2019-02-17T15:37:39.545Z,12.64
2019-02-17T15:40:15.428Z,12.50
2019-02-17T15:42:43.765Z,12.36
2019-02-17T15:45:13.030Z,12.20
2019-02-17T15:47:41.302Z,12.06
2019-02-17T15:50:13.897Z,11.94
2019-02-17T15:52:42.175Z,11.82
2019-02-17T15:55:14.634Z,11.66
2019-02-17T15:57:46.544Z,11.55
2019-02-17T16:00:17.382Z,11.45
2019-02-17T16:02:45.633Z,10.85
2019-02-17T16:05:13.946Z,11.23
2019-02-17T16:07:42.217Z,11.21
2019-02-17T16:10:16.082Z,11.13
2019-02-17T16:12:44.404Z,11.01
2019-02-17T16:15:15.784Z,10.91
2019-02-17T16:17:44.046Z,10.81
2019-02-17T16:20:13.774Z,10.73
2019-02-17T16:22:42.034Z,10.71
2019-02-17T16:25:11.164Z,10.61
2019-02-17T16:27:39.458Z,10.56
2019-02-17T16:30:15.884Z,10.51
2019-02-17T16:32:44.170Z,10.45
2019-02-17T16:35:12.484Z,10.34
2019-02-17T16:37:40.772Z,10.25
2019-02-17T16:40:35.229Z,10.17
2019-02-17T16:43:06.456Z,10.08
2019-02-17T16:45:35.771Z,10.00
2019-02-17T16:48:04.108Z,9.65
2019-02-17T16:50:44.059Z,9.88
2019-02-17T16:53:12.292Z,9.86
2019-02-17T16:55:41.951Z,9.76
2019-02-17T16:58:10.217Z,9.69
2019-02-17T17:00:38.516Z,9.65
2019-02-17T17:03:07.152Z,9.59
2019-02-17T17:05:35.455Z,9.57
2019-02-17T17:08:03.714Z,9.51
2019-02-17T17:10:32.003Z,9.48
2019-02-17T17:13:00.354Z,9.43
2019-02-17T17:15:28.583Z,9.36
2019-02-17T17:17:56.879Z,9.33
2019-02-17T17:20:25.128Z,9.25
2019-02-17T17:22:53.454Z,9.22
2019-02-17T17:25:21.727Z,9.18
2019-02-17T17:27:50.064Z,9.14
2019-02-17T17:30:19.270Z,9.09
2019-02-17T17:32:47.574Z,9.00
2019-02-17T17:35:15.901Z,8.92
2019-02-17T17:37:44.391Z,8.88
2019-02-17T17:40:16.936Z,8.83
2019-02-17T17:42:45.246Z,8.81
2019-02-17T17:45:18.799Z,8.75
2019-02-17T17:47:47.075Z,8.65
2019-02-17T17:50:16.529Z,8.60
2019-02-17T17:52:44.802Z,8.61
2019-02-17T17:55:13.645Z,8.58
2019-02-17T17:57:41.952Z,8.53
2019-02-17T18:00:13.709Z,8.55
2019-02-17T18:02:42.322Z,8.50
2019-02-17T18:05:10.677Z,8.48
2019-02-17T18:07:38.965Z,8.41
2019-02-17T18:10:12.653Z,8.37
2019-02-17T18:12:40.912Z,8.39
2019-02-17T18:15:11.859Z,8.37
2019-02-17T18:17:40.124Z,8.36
2019-02-17T18:20:12.768Z,8.35
2019-02-17T18:22:41.050Z,8.31
2019-02-17T18:25:11.611Z,8.25
2019-02-17T18:27:39.884Z,8.16
2019-02-17T18:30:11.361Z,8.18
2019-02-17T18:32:39.623Z,8.17
2019-02-17T18:35:08.053Z,8.18
2019-02-17T18:37:36.307Z,8.18
2019-02-17T18:40:07.495Z,8.18
2019-02-17T18:42:35.758Z,8.17
2019-02-17T18:45:05.782Z,8.15
2019-02-17T18:47:34.071Z,8.02
2019-02-17T18:50:02.348Z,8.03
2019-02-17T18:52:30.632Z,8.02
2019-02-17T18:54:58.891Z,7.98
2019-02-17T18:57:27.181Z,7.94
2019-02-17T18:59:55.281Z,7.94
2019-02-17T19:02:23.589Z,7.91
2019-02-17T19:04:51.850Z,7.90
2019-02-17T19:07:20.131Z,7.87
2019-02-17T19:09:48.413Z,7.83
2019-02-17T19:12:16.684Z,7.78
2019-02-17T19:14:44.958Z,7.76
2019-02-17T19:17:13.265Z,7.73
2019-02-17T19:19:41.545Z,7.72
2019-02-17T19:22:09.846Z,7.71
2019-02-17T19:24:38.107Z,7.66
2019-02-17T19:27:06.402Z,7.65
2019-02-17T19:29:34.692Z,7.59
2019-02-17T19:32:03.172Z,7.60
2019-02-17T19:34:31.515Z,7.56
2019-02-17T19:37:01.420Z,7.54
2019-02-17T19:39:29.710Z,7.45
2019-02-17T19:41:57.975Z,7.44
2019-02-17T19:44:26.275Z,7.39
2019-02-17T19:46:54.548Z,7.35
2019-02-17T19:49:22.949Z,7.29
2019-02-17T19:51:51.222Z,7.27
2019-02-17T19:54:19.541Z,7.24
2019-02-17T19:56:48.065Z,7.19
2019-02-17T19:59:19.209Z,7.13
2019-02-17T20:01:47.598Z,7.13
2019-02-17T20:07:00.391Z,7.03
2019-02-17T20:09:28.695Z,6.98
2019-02-17T20:11:56.998Z,6.94
2019-02-17T20:14:25.328Z,6.94
2019-02-17T20:16:53.626Z,6.88
2019-02-17T20:19:21.991Z,6.87
2019-02-17T20:21:50.296Z,6.84
2019-02-17T20:24:18.602Z,6.81
2019-02-17T20:26:50.502Z,6.75
2019-02-17T20:29:18.822Z,6.71
2019-02-17T20:31:47.128Z,6.71
2019-02-17T20:34:15.449Z,6.73
2019-02-17T20:36:43.707Z,6.73
2019-02-17T20:39:12.031Z,6.72
2019-02-17T20:41:40.354Z,6.72
2019-02-17T20:44:08.663Z,6.69
2019-02-17T20:47:02.238Z,6.64
2019-02-17T20:49:30.597Z,6.64
2019-02-17T20:51:58.873Z,6.56
2019-02-17T20:54:27.137Z,6.53
2019-02-17T20:56:55.426Z,6.52
2019-02-17T20:59:25.339Z,6.48
2019-02-17T21:01:55.243Z,6.45
2019-02-17T21:04:23.533Z,6.41
2019-02-17T21:06:51.808Z,6.33
2019-02-17T21:09:20.083Z,6.30
2019-02-17T21:11:48.352Z,6.19
2019-02-17T21:14:16.623Z,6.17
2019-02-17T21:16:44.910Z,6.01
2019-02-17T21:19:13.177Z,5.99
2019-02-17T21:21:41.479Z,5.97
2019-02-17T21:24:09.735Z,5.83
2019-02-17T21:26:38.017Z,5.80
2019-02-17T21:29:06.291Z,5.65
2019-02-17T21:31:34.614Z,5.66
2019-02-17T21:34:02.913Z,5.52
2019-02-17T21:36:31.187Z,5.53
2019-02-17T21:38:59.651Z,5.47
2019-02-17T21:41:27.914Z,5.49
2019-02-17T21:43:56.181Z,5.44
2019-02-17T21:46:25.044Z,5.37
2019-02-17T21:48:53.389Z,5.34
2019-02-17T21:51:21.685Z,5.28
2019-02-17T21:53:51.603Z,5.29
2019-02-17T21:56:19.857Z,5.27
2019-02-17T21:58:49.483Z,5.25
2019-02-17T22:01:17.913Z,5.15
2019-02-17T22:03:46.195Z,5.09
2019-02-17T22:06:14.452Z,5.09
2019-02-17T22:08:42.733Z,5.04
2019-02-17T22:11:10.983Z,4.98
2019-02-17T22:13:39.261Z,4.92
2019-02-17T22:16:07.523Z,4.91
2019-02-17T22:18:35.887Z,4.92
2019-02-17T22:21:04.156Z,4.84
2019-02-17T22:23:32.455Z,4.78
2019-02-17T22:26:01.221Z,4.76
2019-02-17T22:28:29.475Z,4.78
2019-02-17T22:30:57.756Z,4.70
2019-02-17T22:33:26.019Z,4.68
2019-02-17T22:35:54.302Z,4.68
2019-02-17T22:38:22.573Z,4.64
2019-02-17T22:40:50.862Z,4.65
2019-02-17T22:43:19.109Z,4.58
2019-02-17T22:45:47.409Z,4.52
2019-02-17T22:48:15.697Z,4.45
2019-02-17T22:50:43.969Z,4.42
2019-02-17T22:53:12.222Z,4.39
2019-02-17T22:55:40.503Z,4.32
2019-02-17T22:58:08.812Z,4.30
2019-02-17T23:00:48.815Z,4.24
2019-02-17T23:03:17.077Z,4.23
2019-02-17T23:05:45.347Z,4.17
2019-02-17T23:08:13.778Z,4.18
2019-02-17T23:10:42.061Z,4.12
2019-02-17T23:13:10.316Z,4.09
2019-02-17T23:15:38.852Z,3.98
2019-02-17T23:18:07.097Z,3.56
2019-02-17T23:20:35.366Z,3.95
2019-02-17T23:23:03.671Z,3.93
2019-02-17T23:25:31.921Z,3.93
2019-02-17T23:28:00.206Z,3.92
2019-02-17T23:30:28.469Z,3.89
2019-02-17T23:32:56.773Z,3.87
2019-02-17T23:35:25.097Z,3.79
2019-02-17T23:37:53.402Z,3.77
2019-02-17T23:40:21.904Z,3.79
2019-02-17T23:42:50.164Z,3.77
2019-02-17T23:45:18.435Z,3.75
2019-02-17T23:47:46.754Z,3.71
2019-02-17T23:50:15.199Z,3.66
2019-02-17T23:52:43.552Z,3.62
2019-02-17T23:55:12.184Z,3.57
2019-02-17T23:57:40.526Z,3.54
